createdAt,value
2024-04-14T00:02:00.283Z,63.88
2024-04-14T00:04:51.143Z,64.57
2024-04-14T00:07:37.944Z,61.91
2024-04-14T00:10:24.831Z,61.33
2024-04-14T00:13:11.220Z,61.66
2024-04-14T00:16:02.214Z,59.78
2024-04-14T00:18:48.877Z,60.51
2024-04-14T00:21:36.213Z,63.16
2024-04-14T00:24:22.561Z,63.75
2024-04-14T00:27:09.016Z,62.19
2024-04-14T00:29:55.646Z,62.52
2024-04-14T00:32:41.847Z,61.21
2024-04-14T00:35:28.897Z,60.65
2024-04-14T00:38:15.184Z,58.56
2024-04-14T00:41:02.491Z,59.36
2024-04-14T00:43:48.386Z,61.63
2024-04-14T00:46:34.609Z,64.68
2024-04-14T00:49:22.059Z,65.35
2024-04-14T00:52:10.428Z,64.59
2024-04-14T00:54:57.048Z,61.68
2024-04-14T00:57:43.726Z,60.97
2024-04-14T01:00:30.348Z,59.75
2024-04-14T01:03:16.687Z,60.31
2024-04-14T01:06:03.630Z,62.49
2024-04-14T01:08:50.373Z,62.75
2024-04-14T01:11:36.723Z,61.43
2024-04-14T01:14:23.190Z,60.54
2024-04-14T01:17:09.904Z,59.39
2024-04-14T01:19:56.175Z,61.56
2024-04-14T01:22:42.688Z,63.61
2024-04-14T01:25:28.730Z,63.12
2024-04-14T01:28:17.312Z,61.65
2024-04-14T01:31:04.827Z,60.46
2024-04-14T01:33:51.440Z,60.33
2024-04-14T01:36:38.064Z,58.29
2024-04-14T01:39:24.530Z,57.81
2024-04-14T01:42:10.659Z,61.12
2024-04-14T01:44:57.327Z,64.98
2024-04-14T01:47:43.472Z,62.36
2024-04-14T01:50:29.819Z,60.87
2024-04-14T01:53:17.387Z,59.49
2024-04-14T01:56:03.623Z,58.28
2024-04-14T01:58:50.279Z,60.91
2024-04-14T02:01:36.720Z,63.54
2024-04-14T02:04:23.663Z,63.29
2024-04-14T02:07:09.680Z,61.56
2024-04-14T02:09:56.615Z,60.59
2024-04-14T02:12:43.218Z,58.39
2024-04-14T02:15:29.517Z,60.07
2024-04-14T02:18:15.769Z,61.58
2024-04-14T02:21:02.002Z,64.38
2024-04-14T02:23:48.101Z,64.75
2024-04-14T02:26:34.645Z,62.90
2024-04-14T02:29:22.106Z,61.89
2024-04-14T02:32:08.634Z,63.62
2024-04-14T02:34:54.858Z,61.20
2024-04-14T02:37:40.968Z,60.86
2024-04-14T02:40:27.462Z,61.67
2024-04-14T02:43:16.141Z,62.01
2024-04-14T02:46:02.239Z,63.04
2024-04-14T02:48:50.571Z,62.32
2024-04-14T02:51:38.112Z,59.30
2024-04-14T02:54:24.563Z,60.38
2024-04-14T02:57:10.655Z,63.17
2024-04-14T02:59:56.794Z,66.44
2024-04-14T03:02:44.647Z,64.96
2024-04-14T03:05:30.855Z,63.90
2024-04-14T03:08:16.800Z,63.52
2024-04-14T03:11:03.553Z,61.77
2024-04-14T03:13:49.690Z,60.93
2024-04-14T03:16:35.634Z,60.91
2024-04-14T03:19:22.100Z,62.76
2024-04-14T03:22:08.083Z,62.81
2024-04-14T03:24:54.356Z,62.69
2024-04-14T03:27:40.907Z,62.62
2024-04-14T03:30:27.351Z,62.29
2024-04-14T03:33:13.429Z,61.57
2024-04-14T03:36:10.150Z,61.68
2024-04-14T03:38:56.312Z,61.13
2024-04-14T03:41:42.713Z,61.26
2024-04-14T03:44:29.628Z,60.61
2024-04-14T03:47:15.893Z,59.78
2024-04-14T03:50:06.337Z,60.96
2024-04-14T03:52:52.564Z,64.05
2024-04-14T03:55:39.012Z,64.16
2024-04-14T03:58:25.287Z,63.57
2024-04-14T04:01:12.181Z,62.68
2024-04-14T04:03:59.197Z,62.27
2024-04-14T04:06:45.746Z,62.26
2024-04-14T04:09:31.831Z,62.35
2024-04-14T04:12:17.898Z,61.64
2024-04-14T04:15:04.461Z,62.20
2024-04-14T04:17:50.626Z,61.55
2024-04-14T04:20:36.719Z,62.05
2024-04-14T04:23:23.855Z,62.46
2024-04-14T04:26:10.001Z,62.47
2024-04-14T04:28:56.561Z,62.68
2024-04-14T04:31:43.733Z,62.52
2024-04-14T04:34:30.126Z,62.25
2024-04-14T04:37:16.150Z,62.35
2024-04-14T04:40:02.562Z,62.24
2024-04-14T04:42:49.400Z,62.43
2024-04-14T04:45:37.771Z,62.34
2024-04-14T04:48:25.431Z,61.91
2024-04-14T04:51:12.038Z,61.19
2024-04-14T04:53:58.018Z,60.54
2024-04-14T04:56:44.448Z,60.13
2024-04-14T04:59:30.731Z,59.67
2024-04-14T05:02:16.788Z,59.15
2024-04-14T05:05:02.870Z,61.77
2024-04-14T05:07:49.148Z,63.54
2024-04-14T05:10:35.352Z,62.14
2024-04-14T05:13:26.870Z,60.73
2024-04-14T05:16:13.065Z,59.41
2024-04-14T05:19:00.636Z,61.13
2024-04-14T05:21:47.070Z,63.30
2024-04-14T05:24:33.617Z,62.17
2024-04-14T05:27:20.972Z,60.47
2024-04-14T05:30:07.891Z,59.90
2024-04-14T05:32:54.556Z,62.16
2024-04-14T05:35:40.641Z,63.34
2024-04-14T05:38:27.165Z,61.95
2024-04-14T05:41:13.226Z,60.06
2024-04-14T05:43:59.794Z,59.14
2024-04-14T05:46:45.789Z,61.18
2024-04-14T05:49:32.260Z,62.53
2024-04-14T05:52:18.680Z,61.67
2024-04-14T05:55:07.333Z,59.98
2024-04-14T05:57:54.342Z,58.81
2024-04-14T06:00:41.066Z,59.22
2024-04-14T06:03:28.038Z,60.70
2024-04-14T06:06:15.352Z,62.60
2024-04-14T06:09:01.510Z,61.25
2024-04-14T06:11:47.954Z,58.44
2024-04-14T06:14:34.326Z,59.93
2024-04-14T06:17:20.467Z,61.61
2024-04-14T06:20:07.827Z,63.15
2024-04-14T06:22:53.804Z,62.19
2024-04-14T06:25:40.014Z,59.89
2024-04-14T06:28:26.417Z,58.46
2024-04-14T06:31:12.475Z,60.33
2024-04-14T06:33:58.762Z,62.06
2024-04-14T06:36:46.321Z,62.73
2024-04-14T06:39:32.788Z,60.89
2024-04-14T06:42:19.072Z,58.69
2024-04-14T06:45:09.150Z,59.20
2024-04-14T06:47:55.168Z,61.18
2024-04-14T06:50:42.148Z,62.87
2024-04-14T06:53:28.476Z,60.65
2024-04-14T06:56:14.891Z,57.97
2024-04-14T06:59:01.025Z,59.22
2024-04-14T07:01:47.445Z,61.68
2024-04-14T07:04:34.290Z,60.36
2024-04-14T07:07:20.629Z,55.99
2024-04-14T07:10:07.136Z,52.82
2024-04-14T07:12:54.201Z,50.38
2024-04-14T07:15:40.453Z,45.05
2024-04-14T07:18:27.137Z,41.66
2024-04-14T07:21:14.154Z,41.98
2024-04-14T07:24:00.352Z,41.21
2024-04-14T07:26:46.435Z,42.84
2024-04-14T07:29:32.604Z,43.30
2024-04-14T07:32:18.765Z,44.38
2024-04-14T07:35:05.478Z,46.51
2024-04-14T07:37:52.278Z,46.07
2024-04-14T07:40:38.838Z,44.14
2024-04-14T07:43:24.967Z,43.07
2024-04-14T07:46:11.224Z,41.89
2024-04-14T07:48:57.238Z,40.02
2024-04-14T07:51:43.306Z,38.32
2024-04-14T07:54:29.688Z,36.20
2024-04-14T07:57:16.606Z,34.98
2024-04-14T08:00:04.654Z,34.98
2024-04-14T08:02:58.272Z,35.72
2024-04-14T08:05:44.686Z,36.32
2024-04-14T08:08:30.661Z,37.98
2024-04-14T08:11:17.562Z,38.80
2024-04-14T08:14:05.168Z,38.15
2024-04-14T08:16:51.735Z,38.71
2024-04-14T08:19:40.356Z,40.11
2024-04-14T08:22:26.652Z,39.60
2024-04-14T08:25:12.680Z,35.63
2024-04-14T08:27:58.893Z,35.39
2024-04-14T08:30:45.778Z,33.38
2024-04-14T08:33:32.713Z,32.62
2024-04-14T08:36:19.146Z,32.51
2024-04-14T08:39:05.578Z,30.35
2024-04-14T08:41:55.371Z,29.69
2024-04-14T08:44:42.908Z,27.98
2024-04-14T08:47:30.351Z,27.94
2024-04-14T08:50:17.393Z,27.31
2024-04-14T08:53:07.218Z,26.18
2024-04-14T08:55:55.426Z,26.73
2024-04-14T08:58:43.786Z,26.97
2024-04-14T09:01:34.563Z,25.94
2024-04-14T09:04:21.302Z,24.24
2024-04-14T09:07:11.598Z,23.04
2024-04-14T09:10:00.792Z,23.72
2024-04-14T09:12:48.498Z,24.67
2024-04-14T09:15:41.283Z,24.52
2024-04-14T09:18:27.719Z,24.08
2024-04-14T09:21:14.174Z,23.13
2024-04-14T09:24:01.182Z,21.76
2024-04-14T09:26:48.737Z,21.87
2024-04-14T09:29:35.577Z,22.36
2024-04-14T09:32:21.619Z,22.78
2024-04-14T09:35:12.855Z,23.14
2024-04-14T09:38:02.094Z,23.14
2024-04-14T09:40:49.843Z,23.49
2024-04-14T09:43:38.632Z,24.16
2024-04-14T09:46:27.062Z,24.15
2024-04-14T09:49:15.216Z,24.23
2024-04-14T09:52:02.842Z,25.01
2024-04-14T09:54:51.598Z,25.22
2024-04-14T09:57:37.998Z,25.69
2024-04-14T10:00:25.005Z,25.92
2024-04-14T10:03:14.257Z,25.55
2024-04-14T10:06:02.087Z,25.15
2024-04-14T10:08:51.275Z,24.81
2024-04-14T10:11:38.040Z,24.06
2024-04-14T10:14:27.707Z,23.42
2024-04-14T10:17:13.857Z,22.54
2024-04-14T10:20:11.751Z,23.05
2024-04-14T10:23:01.402Z,23.49
2024-04-14T10:25:52.869Z,24.06
2024-04-14T10:28:54.605Z,24.31
2024-04-14T10:31:41.864Z,23.11
2024-04-14T10:34:31.284Z,22.76
2024-04-14T10:37:33.618Z,22.06
2024-04-14T10:40:25.944Z,22.46
2024-04-14T10:43:23.725Z,23.79
2024-04-14T10:46:17.949Z,24.51
2024-04-14T10:49:06.015Z,24.23
2024-04-14T10:51:56.545Z,24.55
2024-04-14T10:54:49.213Z,25.10
2024-04-14T10:57:41.946Z,24.73
2024-04-14T11:00:31.942Z,24.87
2024-04-14T11:03:29.028Z,24.43
2024-04-14T11:06:18.844Z,24.92
2024-04-14T11:09:14.411Z,24.57
2024-04-14T11:12:01.988Z,23.86
2024-04-14T11:14:48.224Z,24.11
2024-04-14T11:17:37.278Z,24.27
2024-04-14T11:20:23.387Z,23.61
2024-04-14T11:23:11.559Z,23.93
2024-04-14T11:25:57.976Z,24.66
2024-04-14T11:28:44.286Z,25.40
2024-04-14T11:31:31.943Z,25.81
2024-04-14T11:34:19.539Z,25.92
2024-04-14T11:37:07.909Z,26.36
2024-04-14T11:39:57.058Z,26.37
2024-04-14T11:42:43.493Z,26.39
2024-04-14T11:45:30.223Z,27.17
2024-04-14T11:48:17.888Z,28.26
2024-04-14T11:51:04.737Z,29.22
2024-04-14T11:53:50.951Z,29.95
2024-04-14T11:56:37.065Z,29.89
2024-04-14T11:59:23.020Z,29.88
2024-04-14T12:02:10.122Z,30.52
2024-04-14T12:04:56.516Z,31.50
2024-04-14T12:07:42.792Z,32.08
2024-04-14T12:10:29.093Z,32.86
2024-04-14T12:13:15.616Z,33.98
2024-04-14T12:16:01.908Z,35.01
2024-04-14T12:18:48.519Z,35.70
2024-04-14T12:21:35.733Z,36.04
2024-04-14T12:24:21.890Z,35.27
2024-04-14T12:27:08.257Z,35.14
2024-04-14T12:29:54.546Z,35.71
2024-04-14T12:32:42.330Z,36.00
2024-04-14T12:35:28.690Z,36.18
2024-04-14T12:38:15.276Z,36.91
2024-04-14T12:41:01.226Z,37.78
2024-04-14T12:43:48.178Z,38.30
2024-04-14T12:46:34.624Z,38.34
2024-04-14T12:49:26.680Z,38.03
2024-04-14T12:52:13.057Z,37.18
2024-04-14T12:54:59.956Z,36.94
2024-04-14T12:57:46.312Z,37.00
2024-04-14T13:00:32.272Z,37.85
2024-04-14T13:03:18.326Z,38.23
2024-04-14T13:06:04.956Z,38.39
2024-04-14T13:08:52.271Z,38.87
2024-04-14T13:11:38.869Z,39.42
2024-04-14T13:14:25.234Z,40.06
2024-04-14T13:17:11.841Z,40.05
2024-04-14T13:19:59.232Z,39.86
2024-04-14T13:22:45.049Z,40.13
2024-04-14T13:25:31.149Z,40.26
2024-04-14T13:28:18.498Z,40.54
2024-04-14T13:31:05.021Z,40.47
2024-04-14T13:33:51.573Z,40.39
2024-04-14T13:36:37.748Z,40.03
2024-04-14T13:39:23.821Z,39.43
2024-04-14T13:42:12.477Z,39.39
2024-04-14T13:44:58.922Z,39.50
2024-04-14T13:47:45.109Z,39.72
2024-04-14T13:50:31.407Z,40.09
2024-04-14T13:53:17.646Z,40.07
2024-04-14T13:56:04.237Z,40.38
2024-04-14T13:58:53.026Z,41.18
2024-04-14T14:01:39.526Z,41.48
2024-04-14T14:04:27.107Z,41.25
2024-04-14T14:07:13.378Z,40.87
2024-04-14T14:09:59.782Z,40.82
2024-04-14T14:12:46.413Z,40.52
2024-04-14T14:15:32.858Z,40.81
2024-04-14T14:18:19.357Z,40.68
2024-04-14T14:21:05.965Z,40.22
2024-04-14T14:23:51.911Z,39.97
2024-04-14T14:26:38.873Z,39.65
2024-04-14T14:29:25.364Z,40.01
2024-04-14T14:32:11.563Z,40.49
2024-04-14T14:35:16.691Z,40.77
2024-04-14T14:38:03.982Z,41.19
2024-04-14T14:40:52.279Z,41.80
2024-04-14T14:43:39.120Z,42.14
2024-04-14T14:46:26.669Z,42.31
2024-04-14T14:49:13.500Z,42.01
2024-04-14T14:51:59.615Z,42.18
2024-04-14T14:54:46.156Z,42.07
2024-04-14T14:57:32.343Z,42.05
2024-04-14T15:00:18.585Z,42.49
2024-04-14T15:03:05.257Z,43.09
2024-04-14T15:05:51.718Z,43.45
2024-04-14T15:08:38.283Z,43.68
2024-04-14T15:11:24.752Z,43.42
2024-04-14T15:14:11.362Z,43.07
2024-04-14T15:16:59.789Z,42.95
2024-04-14T15:19:46.177Z,42.82
2024-04-14T15:22:32.494Z,42.58
2024-04-14T15:25:23.502Z,42.63
2024-04-14T15:28:15.277Z,42.55
2024-04-14T15:31:09.361Z,42.78
2024-04-14T15:33:55.428Z,42.37
2024-04-14T15:36:41.795Z,42.45
2024-04-14T15:39:28.059Z,42.62
2024-04-14T15:42:14.513Z,43.29
2024-04-14T15:45:00.622Z,43.44
2024-04-14T15:47:46.881Z,44.05
2024-04-14T15:50:33.688Z,44.74
2024-04-14T15:53:20.275Z,44.98
2024-04-14T15:56:07.523Z,45.35
2024-04-14T15:58:55.646Z,45.64
2024-04-14T16:01:46.253Z,46.08
2024-04-14T16:04:34.712Z,46.24
2024-04-14T16:07:21.034Z,46.42
2024-04-14T16:10:08.010Z,46.60
2024-04-14T16:12:54.614Z,46.45
2024-04-14T16:15:41.334Z,46.53
2024-04-14T16:18:27.643Z,46.65
2024-04-14T16:21:13.939Z,46.64
2024-04-14T16:24:03.720Z,46.96
2024-04-14T16:26:50.445Z,47.21
2024-04-14T16:29:36.691Z,47.48
2024-04-14T16:32:23.136Z,48.10
2024-04-14T16:35:09.821Z,48.27
2024-04-14T16:37:56.431Z,48.33
2024-04-14T16:40:42.513Z,48.61
2024-04-14T16:43:28.790Z,49.03
2024-04-14T16:46:14.943Z,49.16
2024-04-14T16:49:01.608Z,49.24
2024-04-14T16:51:47.658Z,49.47
2024-04-14T16:54:34.380Z,49.70
2024-04-14T16:57:20.640Z,50.00
2024-04-14T17:00:07.992Z,49.99
2024-04-14T17:02:54.350Z,49.98
2024-04-14T17:05:40.595Z,50.08
2024-04-14T17:08:27.139Z,50.32
2024-04-14T17:11:13.420Z,50.63
2024-04-14T17:13:59.382Z,50.82
2024-04-14T17:16:45.759Z,51.23
2024-04-14T17:19:32.049Z,51.34
2024-04-14T17:22:18.485Z,51.38
2024-04-14T17:25:05.045Z,51.51
2024-04-14T17:27:51.808Z,51.81
2024-04-14T17:30:38.506Z,51.96
2024-04-14T17:33:24.809Z,51.89
2024-04-14T17:36:11.406Z,51.88
2024-04-14T17:38:57.910Z,52.22
2024-04-14T17:41:44.548Z,52.39
2024-04-14T17:44:31.608Z,52.57
2024-04-14T17:47:18.757Z,52.65
2024-04-14T17:50:05.577Z,52.97
2024-04-14T17:52:52.271Z,53.08
2024-04-14T17:55:38.794Z,52.97
2024-04-14T17:58:25.224Z,53.32
2024-04-14T18:01:11.783Z,53.39
2024-04-14T18:04:00.262Z,53.45
2024-04-14T18:06:46.744Z,53.32
2024-04-14T18:09:33.840Z,53.65
2024-04-14T18:12:21.313Z,53.50
2024-04-14T18:15:07.827Z,53.62
2024-04-14T18:17:54.368Z,54.13
2024-04-14T18:20:41.795Z,54.01
2024-04-14T18:23:30.199Z,53.80
2024-04-14T18:26:16.220Z,53.80
2024-04-14T18:29:03.112Z,53.83
2024-04-14T18:31:50.379Z,53.79
2024-04-14T18:34:36.439Z,53.99
2024-04-14T18:37:24.134Z,53.94
2024-04-14T18:40:39.170Z,54.03
2024-04-14T18:43:42.998Z,54.05
2024-04-14T18:46:43.181Z,54.09
2024-04-14T18:49:41.461Z,54.28
2024-04-14T18:52:32.975Z,54.17
2024-04-14T18:55:35.476Z,54.18
2024-04-14T18:58:23.705Z,54.17
2024-04-14T19:01:10.407Z,54.28
2024-04-14T19:03:56.879Z,54.41
2024-04-14T19:06:45.024Z,54.43
2024-04-14T19:09:31.604Z,54.40
2024-04-14T19:12:21.758Z,54.68
2024-04-14T19:15:08.508Z,54.81
2024-04-14T19:17:54.515Z,54.99
2024-04-14T19:20:40.941Z,54.96
2024-04-14T19:23:27.141Z,55.20
2024-04-14T19:26:13.169Z,55.58
2024-04-14T19:29:01.427Z,55.60
2024-04-14T19:31:47.591Z,55.66
2024-04-14T19:34:33.799Z,55.88
2024-04-14T19:37:20.438Z,56.08
2024-04-14T19:40:07.762Z,56.26
2024-04-14T19:42:54.027Z,56.66
2024-04-14T19:45:40.627Z,56.53
2024-04-14T19:48:27.761Z,56.64
2024-04-14T19:51:14.934Z,56.87
2024-04-14T19:54:01.617Z,57.12
2024-04-14T19:56:47.752Z,57.23
2024-04-14T19:59:34.006Z,57.71
2024-04-14T20:02:20.398Z,58.19
2024-04-14T20:05:07.067Z,58.27
2024-04-14T20:07:59.149Z,58.72
2024-04-14T20:10:45.208Z,58.89
2024-04-14T20:13:31.477Z,58.89
2024-04-14T20:16:17.502Z,59.05
2024-04-14T20:19:05.664Z,59.12
2024-04-14T20:21:52.085Z,59.14
2024-04-14T20:24:38.501Z,59.21
2024-04-14T20:27:24.881Z,59.77
2024-04-14T20:30:11.237Z,60.12
2024-04-14T20:32:57.679Z,60.34
2024-04-14T20:35:44.219Z,60.21
2024-04-14T20:38:30.383Z,60.24
2024-04-14T20:41:16.891Z,60.94
2024-04-14T20:44:03.402Z,61.03
2024-04-14T20:46:49.443Z,60.78
2024-04-14T20:49:35.497Z,61.51
2024-04-14T20:52:21.942Z,60.98
2024-04-14T20:55:08.644Z,61.25
2024-04-14T20:57:54.890Z,61.38
2024-04-14T21:00:41.172Z,61.73
2024-04-14T21:03:27.853Z,59.71
2024-04-14T21:06:13.805Z,56.76
2024-04-14T21:08:59.939Z,57.60
2024-04-14T21:11:46.230Z,58.72
2024-04-14T21:14:32.381Z,59.82
2024-04-14T21:17:18.477Z,60.42
2024-04-14T21:20:04.974Z,60.70
2024-04-14T21:22:51.488Z,61.29
2024-04-14T21:25:38.079Z,61.66
2024-04-14T21:28:24.380Z,62.21
2024-04-14T21:31:11.597Z,62.60
2024-04-14T21:33:57.809Z,58.41
2024-04-14T21:36:46.695Z,58.35
2024-04-14T21:39:33.235Z,59.80
2024-04-14T21:42:19.860Z,60.13
2024-04-14T21:45:06.418Z,61.14
2024-04-14T21:47:52.802Z,62.25
2024-04-14T21:50:38.818Z,62.85
2024-04-14T21:53:25.024Z,60.18
2024-04-14T21:56:11.422Z,57.34
2024-04-14T21:59:01.195Z,58.78
2024-04-14T22:01:47.777Z,60.08
2024-04-14T22:04:34.834Z,61.53
2024-04-14T22:07:21.074Z,62.58
2024-04-14T22:10:07.321Z,60.18
2024-04-14T22:12:53.875Z,58.72
2024-04-14T22:15:41.243Z,59.78
2024-04-14T22:18:28.081Z,61.03
2024-04-14T22:21:14.285Z,62.43
2024-04-14T22:24:00.740Z,62.65
2024-04-14T22:26:46.955Z,61.83
2024-04-14T22:29:33.265Z,57.27
2024-04-14T22:32:19.442Z,58.25
2024-04-14T22:35:05.933Z,60.14
2024-04-14T22:37:52.340Z,62.11
2024-04-14T22:40:38.421Z,63.06
2024-04-14T22:43:24.433Z,61.10
2024-04-14T22:46:13.025Z,58.57
2024-04-14T22:48:58.973Z,57.97
2024-04-14T22:51:45.344Z,59.76
2024-04-14T22:54:31.604Z,61.98
2024-04-14T22:57:17.882Z,58.78
2024-04-14T23:00:07.944Z,57.20
2024-04-14T23:02:54.177Z,59.36
2024-04-14T23:05:40.772Z,61.32
2024-04-14T23:08:26.986Z,63.26
2024-04-14T23:11:12.863Z,60.55
2024-04-14T23:13:58.998Z,58.27
2024-04-14T23:16:45.304Z,58.73
2024-04-14T23:19:31.126Z,60.64
2024-04-14T23:22:17.394Z,63.05
2024-04-14T23:25:04.806Z,61.84
2024-04-14T23:27:51.690Z,59.60
2024-04-14T23:30:38.626Z,57.89
2024-04-14T23:33:25.081Z,59.52
2024-04-14T23:36:11.257Z,60.80
2024-04-14T23:38:58.929Z,62.86
2024-04-14T23:41:45.121Z,61.68
2024-04-14T23:44:31.470Z,59.02
2024-04-14T23:47:17.806Z,58.57
2024-04-14T23:50:05.076Z,59.72
2024-04-14T23:52:51.299Z,62.85
2024-04-14T23:55:38.385Z,63.22
2024-04-14T23:58:36.033Z,60.57
